Great Falls/Malmstrom AFB, Montana
Current Conditions -  °F | °C
As of 8:53 AM on Monday 26 Jan 2015 (Local Time) from KGTF Reporting Station
Clear Clear  
Wind Chill: 56°   Ceiling: Unl
Heat Index: 56°   Visibility: 10mi
Dew Point: 27°   Wind: 23mph
Humidity: 33%   Direction: 230°SW
Pressure: 30.02"   Gusts: 30mph
Location:  47.47°N, 111.32°W
Report Text: KGTF 261553Z 23020G26KT 10SM CLR 13/M03 A3002 RMK AO2 PK WND 22029/1500 SLP161 T01331028
Loading
Personal Weather Stations






























Interactive Weather Map New forecast layout! Learn more

10-Day Weather Forecast

Advertisements
Track Severe Weather on mobile